Weather at Torrey Pines Corporate Helistop

Public forecast

Using degrees Fahrenheit for public forecast. Weather courtesy of forecast.io.

Closest aviation weather report (METAR) to Torrey Pines Corporate Helistop

Closest report is Miramar Marine Corps Air Station - Mitscher Field, 5.6 nm (10.4 km) ESE.

2023/09/30 05:55 (retrieved 19 minutes ago)

KNKX 300555Z 12003KT 10SM OVC026 17/13 A2987 RMK AO2 SLP109 T01720128 10194 20150 50003

Closest aviation forecast (TAF) to Torrey Pines Corporate Helistop

Closest forecast is San Diego International Airport, 10.9 nm (20.1 km) SSE.

2023/09/30 06:22 (retrieved 0 seconds ago)

TAF KSAN 300520Z 3006/0112 19006KT P6SM OVC025 FM301300 19005KT P6SM VCSH OVC025 FM301700 19007KT 6SM -SHRA BKN025 BKN040 FM301900 24010KT P6SM VCSH BKN025 BKN040 FM010200 28008KT 6SM -SHRA BKN025 BKN040 FM010700 28006KT P6SM VCSH BKN025 BKN040